createdAt,value
2018-01-10T00:01:07.330Z,1005.62
2018-01-10T00:02:16.309Z,1005.65
2018-01-10T00:03:25.520Z,1005.64
2018-01-10T00:04:34.750Z,1005.66
2018-01-10T00:05:43.965Z,1005.66
2018-01-10T00:06:53.714Z,1005.64
2018-01-10T00:08:02.913Z,1005.62
2018-01-10T00:09:11.847Z,1005.62
2018-01-10T00:10:20.785Z,1005.63
2018-01-10T00:11:30.010Z,1005.6
2018-01-10T00:12:38.942Z,1005.61
2018-01-10T00:13:48.421Z,1005.6
2018-01-10T00:14:57.642Z,1005.55
2018-01-10T00:16:06.851Z,1005.55
2018-01-10T00:17:16.318Z,1005.58
2018-01-10T00:18:25.797Z,1005.55
2018-01-10T00:19:34.727Z,1005.54
2018-01-10T00:20:43.924Z,1005.54
2018-01-10T00:21:52.882Z,1005.52
2018-01-10T00:23:02.344Z,1005.47
2018-01-10T00:24:11.311Z,1005.48
2018-01-10T00:25:20.519Z,1005.45
2018-01-10T00:26:29.747Z,1005.44
2018-01-10T00:27:39.209Z,1005.39
2018-01-10T00:28:48.405Z,1005.42
2018-01-10T00:29:57.616Z,1005.4
2018-01-10T00:31:06.822Z,1005.4
2018-01-10T00:32:16.025Z,1005.38
2018-01-10T00:33:25.538Z,1005.38
2018-01-10T00:34:34.726Z,1005.39
2018-01-10T00:35:43.933Z,1005.4
2018-01-10T00:36:53.123Z,1005.39
2018-01-10T00:38:02.348Z,1005.42
2018-01-10T00:39:11.545Z,1005.44
2018-01-10T00:40:21.044Z,1005.41
2018-01-10T00:41:29.722Z,1005.39
2018-01-10T00:42:39.198Z,1005.39
2018-01-10T00:43:48.398Z,1005.36
2018-01-10T00:44:57.628Z,1005.4
2018-01-10T00:46:06.826Z,1005.43
2018-01-10T00:47:16.303Z,1005.37
2018-01-10T00:48:24.996Z,1005.38
2018-01-10T00:49:33.941Z,1005.39
2018-01-10T00:50:42.646Z,1005.37
2018-01-10T00:51:52.147Z,1005.36
2018-01-10T00:53:01.087Z,1005.35
2018-01-10T00:54:10.032Z,1005.33
2018-01-10T00:55:19.237Z,1005.29
2018-01-10T00:56:28.445Z,1005.31
2018-01-10T00:57:37.382Z,1005.31
2018-01-10T00:58:46.583Z,1005.31
2018-01-10T00:59:55.265Z,1005.3
2018-01-10T01:01:04.204Z,1005.28
2018-01-10T01:02:13.141Z,1005.28
2018-01-10T01:03:22.612Z,1005.28
2018-01-10T01:04:31.311Z,1005.23
2018-01-10T01:05:40.275Z,1005.24
2018-01-10T01:06:49.272Z,1005.24
2018-01-10T01:07:58.772Z,1005.28
2018-01-10T01:09:07.455Z,1005.26
2018-01-10T01:10:16.649Z,1005.27
2018-01-10T01:11:26.104Z,1005.24
2018-01-10T01:12:36.108Z,1005.26
2018-01-10T01:13:45.044Z,1005.23
2018-01-10T01:14:54.517Z,1005.25
2018-01-10T01:16:03.460Z,1005.22
2018-01-10T01:17:12.142Z,1005.24
2018-01-10T01:18:21.383Z,1005.22
2018-01-10T01:19:30.843Z,1005.27
2018-01-10T01:20:39.786Z,1005.2
2018-01-10T01:21:49.256Z,1005.26
2018-01-10T01:22:58.195Z,1005.28
2018-01-10T01:24:07.648Z,1005.26
2018-01-10T01:25:16.853Z,1005.25
2018-01-10T01:26:26.318Z,1005.24
2018-01-10T01:27:35.772Z,1005.25
2018-01-10T01:28:44.974Z,1005.29
2018-01-10T01:29:54.170Z,1005.3
2018-01-10T01:31:02.863Z,1005.29
2018-01-10T01:32:12.323Z,1005.27
2018-01-10T01:33:21.786Z,1005.29
2018-01-10T01:34:31.040Z,1005.27
2018-01-10T01:35:39.744Z,1005.29
2018-01-10T01:36:49.478Z,1005.3
2018-01-10T01:37:58.165Z,1005.33
2018-01-10T01:39:07.641Z,1005.32
2018-01-10T01:40:16.584Z,1005.3
2018-01-10T01:41:25.538Z,1005.32
2018-01-10T01:42:35.432Z,1005.31
2018-01-10T01:43:44.902Z,1005.3
2018-01-10T01:44:53.841Z,1005.33
2018-01-10T01:46:02.777Z,1005.33
2018-01-10T01:47:12.249Z,1005.33
2018-01-10T01:48:21.212Z,1005.32
2018-01-10T01:49:30.420Z,1005.34
2018-01-10T01:50:39.356Z,1005.35
2018-01-10T01:51:48.296Z,1005.33
2018-01-10T01:52:57.239Z,1005.36
2018-01-10T01:54:06.448Z,1005.33
2018-01-10T01:55:15.664Z,1005.36
2018-01-10T01:56:24.625Z,1005.37
2018-01-10T01:57:33.560Z,1005.36
2018-01-10T01:58:42.504Z,1005.32
2018-01-10T01:59:51.183Z,1005.35
2018-01-10T02:01:00.399Z,1005.31
2018-01-10T02:02:09.373Z,1005.3
2018-01-10T02:03:18.856Z,1005.34
2018-01-10T02:04:27.831Z,1005.31
2018-01-10T02:05:36.517Z,1005.32
2018-01-10T02:06:45.465Z,1005.34
2018-01-10T02:07:54.953Z,1005.35
2018-01-10T02:09:03.900Z,1005.33
2018-01-10T02:10:12.851Z,1005.34
2018-01-10T02:11:22.851Z,1005.36
2018-01-10T02:12:32.075Z,1005.39
2018-01-10T02:13:41.019Z,1005.4
2018-01-10T02:14:49.706Z,1005.38
2018-01-10T02:15:58.943Z,1005.39
2018-01-10T02:17:07.895Z,1005.38
2018-01-10T02:18:17.619Z,1005.37
2018-01-10T02:19:27.100Z,1005.37
2018-01-10T02:20:35.781Z,1005.4
2018-01-10T02:21:44.719Z,1005.35
2018-01-10T02:22:53.924Z,1005.32
2018-01-10T02:24:02.861Z,1005.35
2018-01-10T02:25:11.796Z,1005.33
2018-01-10T02:26:21.019Z,1005.35
2018-01-10T02:27:29.972Z,1005.32
2018-01-10T02:28:38.911Z,1005.35
2018-01-10T02:29:47.611Z,1005.34
2018-01-10T02:30:56.834Z,1005.36
2018-01-10T02:32:06.073Z,1005.33
2018-01-10T02:33:14.744Z,1005.34
2018-01-10T02:34:23.682Z,1005.31
2018-01-10T02:35:32.363Z,1005.33
2018-01-10T02:36:41.308Z,1005.33
2018-01-10T02:37:50.543Z,1005.33
2018-01-10T02:38:59.513Z,1005.32
2018-01-10T02:40:08.987Z,1005.34
2018-01-10T02:41:18.534Z,1005.32
2018-01-10T02:42:27.476Z,1005.33
2018-01-10T02:43:36.665Z,1005.28
2018-01-10T02:44:45.894Z,1005.3
2018-01-10T02:45:55.097Z,1005.31
2018-01-10T02:47:04.308Z,1005.26
2018-01-10T02:48:13.248Z,1005.31
2018-01-10T02:49:22.210Z,1005.26
2018-01-10T02:50:31.176Z,1005.23
2018-01-10T02:51:40.131Z,1005.22
2018-01-10T02:52:49.348Z,1005.24
2018-01-10T02:53:58.562Z,1005.23
2018-01-10T02:55:08.292Z,1005.25
2018-01-10T02:56:17.745Z,1005.24
2018-01-10T02:57:26.955Z,1005.24
2018-01-10T02:58:36.212Z,1005.23
2018-01-10T02:59:45.163Z,1005.24
2018-01-10T03:00:54.362Z,1005.23
2018-01-10T03:02:03.855Z,1005.19
2018-01-10T03:03:13.072Z,1005.17
2018-01-10T03:04:22.287Z,1005.19
2018-01-10T03:05:31.226Z,1005.16
2018-01-10T03:06:40.161Z,1005.17
2018-01-10T03:07:49.106Z,1005.16
2018-01-10T03:08:58.575Z,1005.16
2018-01-10T03:10:07.795Z,1005.16
2018-01-10T03:11:16.987Z,1005.19
2018-01-10T03:12:26.719Z,1005.13
2018-01-10T03:13:35.654Z,1005.14
2018-01-10T03:14:44.329Z,1005.1
2018-01-10T03:15:53.007Z,1005.17
2018-01-10T03:17:01.955Z,1005.14
2018-01-10T03:18:11.165Z,1005.13
2018-01-10T03:19:20.100Z,1005.12
2018-01-10T03:20:29.573Z,1005.13
2018-01-10T03:21:38.246Z,1005.14
2018-01-10T03:22:47.197Z,1005.13
2018-01-10T03:23:56.398Z,1005.09
2018-01-10T03:25:05.130Z,1005.05
2018-01-10T03:26:14.279Z,1005.05
2018-01-10T03:27:23.747Z,1005.05
2018-01-10T03:28:32.967Z,1005.08
2018-01-10T03:29:41.900Z,1005.06
2018-01-10T03:30:51.095Z,1005.06
2018-01-10T03:32:01.008Z,1005.07
2018-01-10T03:33:10.229Z,1005.05
2018-01-10T03:34:19.446Z,1005
2018-01-10T03:35:28.138Z,1004.97
2018-01-10T03:36:37.340Z,1004.97
2018-01-10T03:37:46.571Z,1004.98
2018-01-10T03:38:55.772Z,1004.97
2018-01-10T03:40:05.532Z,1005.03
2018-01-10T03:41:14.994Z,1005.05
2018-01-10T03:42:23.675Z,1005.05
2018-01-10T03:43:32.616Z,1005.06
2018-01-10T03:44:41.905Z,1005.06
2018-01-10T03:45:50.844Z,1005.04
2018-01-10T03:46:59.790Z,1005.06
2018-01-10T03:48:08.984Z,1005.06
2018-01-10T03:49:18.184Z,1005.11
2018-01-10T03:50:27.665Z,1005.05
2018-01-10T03:51:36.606Z,1005.08
2018-01-10T03:52:45.816Z,1005.08
2018-01-10T03:53:54.503Z,1005.02
2018-01-10T03:55:03.438Z,1005.03
2018-01-10T03:56:12.369Z,1005.03
2018-01-10T03:57:22.091Z,1005.02
2018-01-10T03:58:31.036Z,1005.03
2018-01-10T03:59:40.259Z,1005.01
2018-01-10T04:00:49.736Z,1005.03
2018-01-10T04:01:58.676Z,1005.03
2018-01-10T04:03:07.936Z,1004.99
2018-01-10T04:04:17.138Z,1004.98
2018-01-10T04:05:26.084Z,1004.97
2018-01-10T04:06:34.759Z,1004.98
2018-01-10T04:07:43.703Z,1004.96
2018-01-10T04:08:53.160Z,1004.95
2018-01-10T04:10:02.372Z,1004.92
2018-01-10T04:11:11.591Z,1004.96
2018-01-10T04:12:20.542Z,1004.92
2018-01-10T04:13:29.232Z,1004.93
2018-01-10T04:14:38.186Z,1004.95
2018-01-10T04:15:47.392Z,1004.94
2018-01-10T04:16:56.331Z,1004.97
2018-01-10T04:18:05.018Z,1004.99
2018-01-10T04:19:14.748Z,1004.96
2018-01-10T04:20:23.708Z,1004.96
2018-01-10T04:21:32.380Z,1004.96
2018-01-10T04:22:41.871Z,1004.97
2018-01-10T04:23:51.229Z,1004.95
2018-01-10T04:25:00.159Z,1004.94
2018-01-10T04:26:08.851Z,1004.92
2018-01-10T04:27:17.795Z,1004.91
2018-01-10T04:28:26.733Z,1004.87
2018-01-10T04:29:35.674Z,1004.86
2018-01-10T04:30:44.613Z,1004.84
2018-01-10T04:31:53.821Z,1004.86
2018-01-10T04:33:02.758Z,1004.81
2018-01-10T04:34:11.441Z,1004.81
2018-01-10T04:35:20.389Z,1004.8
2018-01-10T04:36:29.594Z,1004.79
2018-01-10T04:37:39.051Z,1004.82
2018-01-10T04:38:47.719Z,1004.8
2018-01-10T04:39:57.203Z,1004.8
2018-01-10T04:41:06.153Z,1004.8
2018-01-10T04:42:14.832Z,1004.77
2018-01-10T04:43:24.043Z,1004.81
2018-01-10T04:44:32.720Z,1004.81
2018-01-10T04:45:41.404Z,1004.8
2018-01-10T04:46:50.870Z,1004.84
2018-01-10T04:48:00.364Z,1004.79
2018-01-10T04:49:09.565Z,1004.82
2018-01-10T04:50:18.525Z,1004.82
2018-01-10T04:51:27.478Z,1004.82
2018-01-10T04:52:36.693Z,1004.78
2018-01-10T04:53:45.963Z,1004.82
2018-01-10T04:54:55.161Z,1004.77
2018-01-10T04:56:04.632Z,1004.76
2018-01-10T04:57:13.595Z,1004.8
2018-01-10T04:58:22.276Z,1004.8
2018-01-10T04:59:31.478Z,1004.77
2018-01-10T05:00:40.673Z,1004.79
2018-01-10T05:01:49.353Z,1004.76
2018-01-10T05:02:58.020Z,1004.81
2018-01-10T05:04:06.974Z,1004.82
2018-01-10T05:05:15.908Z,1004.79
2018-01-10T05:06:25.103Z,1004.79
2018-01-10T05:07:34.313Z,1004.78
2018-01-10T05:08:43.002Z,1004.76
2018-01-10T05:09:52.225Z,1004.78
2018-01-10T05:11:01.185Z,1004.76
2018-01-10T05:12:09.869Z,1004.8
2018-01-10T05:13:19.057Z,1004.82
2018-01-10T05:14:28.022Z,1004.8
2018-01-10T05:15:37.189Z,1004.8
2018-01-10T05:16:46.660Z,1004.82
2018-01-10T05:17:56.114Z,1004.8
2018-01-10T05:19:05.042Z,1004.8
2018-01-10T05:20:13.979Z,1004.82
2018-01-10T05:21:22.927Z,1004.82
2018-01-10T05:22:31.893Z,1004.79
2018-01-10T05:23:40.826Z,1004.81
2018-01-10T05:24:49.756Z,1004.8
2018-01-10T05:25:58.955Z,1004.84
2018-01-10T05:27:08.160Z,1004.81
2018-01-10T05:28:17.122Z,1004.84
2018-01-10T05:29:26.584Z,1004.85
2018-01-10T05:30:35.516Z,1004.81
2018-01-10T05:31:44.976Z,1004.81
2018-01-10T05:32:53.913Z,1004.79
2018-01-10T05:34:03.620Z,1004.84
2018-01-10T05:35:12.819Z,1004.8
2018-01-10T05:36:22.080Z,1004.75
2018-01-10T05:37:30.747Z,1004.81
2018-01-10T05:38:39.685Z,1004.81
2018-01-10T05:39:48.887Z,1004.83
2018-01-10T05:40:58.087Z,1004.82
2018-01-10T05:42:07.026Z,1004.83
2018-01-10T05:43:15.960Z,1004.83
2018-01-10T05:44:25.155Z,1004.84
2018-01-10T05:45:34.379Z,1004.85
2018-01-10T05:46:43.309Z,1004.91
2018-01-10T05:47:52.247Z,1004.84
2018-01-10T05:49:01.182Z,1004.8
2018-01-10T05:50:10.382Z,1004.83
2018-01-10T05:51:19.321Z,1004.85
2018-01-10T05:52:28.793Z,1004.82
2018-01-10T05:53:38.245Z,1004.8
2018-01-10T05:54:47.179Z,1004.82
2018-01-10T05:55:56.384Z,1004.79
2018-01-10T05:57:05.337Z,1004.8
2018-01-10T05:58:14.544Z,1004.79
2018-01-10T05:59:23.488Z,1004.81
2018-01-10T06:00:32.691Z,1004.77
2018-01-10T06:01:41.390Z,1004.8
2018-01-10T06:02:50.634Z,1004.82
2018-01-10T06:03:59.572Z,1004.81
2018-01-10T06:05:09.032Z,1004.82
2018-01-10T06:06:18.226Z,1004.83
2018-01-10T06:07:27.157Z,1004.85
2018-01-10T06:08:36.355Z,1004.86
2018-01-10T06:09:45.556Z,1004.83
2018-01-10T06:10:54.519Z,1004.87
2018-01-10T06:12:03.478Z,1004.83
2018-01-10T06:13:13.196Z,1004.84
2018-01-10T06:14:22.389Z,1004.86
2018-01-10T06:15:31.578Z,1004.85
2018-01-10T06:16:47.324Z,1004.76
2018-01-10T06:17:56.525Z,1004.83
2018-01-10T06:19:05.459Z,1004.84
2018-01-10T06:20:14.691Z,1004.83
2018-01-10T06:21:23.891Z,1004.81
2018-01-10T06:22:33.342Z,1004.82
2018-01-10T06:23:42.557Z,1004.84
2018-01-10T06:24:51.759Z,1004.87
2018-01-10T06:26:00.703Z,1004.87
2018-01-10T06:27:09.970Z,1004.93
2018-01-10T06:28:19.428Z,1004.92
2018-01-10T06:29:28.892Z,1004.95
2018-01-10T06:30:37.828Z,1004.92
2018-01-10T06:31:47.042Z,1004.91
2018-01-10T06:32:55.722Z,1004.95
2018-01-10T06:34:05.183Z,1004.95
2018-01-10T06:35:14.463Z,1004.94
2018-01-10T06:36:23.669Z,1004.92
2018-01-10T06:37:32.348Z,1004.95
2018-01-10T06:38:41.560Z,1004.93
2018-01-10T06:39:50.763Z,1004.99
2018-01-10T06:40:59.955Z,1004.97
2018-01-10T06:42:09.167Z,1004.98
2018-01-10T06:43:18.104Z,1004.94
2018-01-10T06:44:27.044Z,1004.95
2018-01-10T06:45:36.248Z,1004.98
2018-01-10T06:46:45.734Z,1005.01
2018-01-10T06:47:54.928Z,1004.94
2018-01-10T06:49:03.604Z,1004.99
2018-01-10T06:50:13.071Z,1004.98
2018-01-10T06:51:22.030Z,1004.99
2018-01-10T06:52:30.982Z,1005
2018-01-10T06:53:39.658Z,1005
2018-01-10T06:54:49.134Z,1004.95
2018-01-10T06:55:58.326Z,1005.01
2018-01-10T06:57:07.788Z,1005.01
2018-01-10T06:58:16.750Z,1005.01
2018-01-10T06:59:25.692Z,1005.04
2018-01-10T07:00:34.637Z,1005.07
2018-01-10T07:01:43.578Z,1005.08
2018-01-10T07:02:52.515Z,1005.09
2018-01-10T07:04:01.967Z,1005.09
2018-01-10T07:05:10.918Z,1005.06
2018-01-10T07:06:20.123Z,1005.05
2018-01-10T07:07:29.059Z,1005.03
2018-01-10T07:08:38.847Z,1005.05
2018-01-10T07:09:48.035Z,1005.02
2018-01-10T07:10:57.260Z,1005.05
2018-01-10T07:12:06.218Z,1005.07
2018-01-10T07:13:15.451Z,1005.04
2018-01-10T07:14:24.646Z,1005
2018-01-10T07:15:34.115Z,1005.03
2018-01-10T07:16:43.340Z,1005.06
2018-01-10T07:17:52.541Z,1005.02
2018-01-10T07:19:02.006Z,1005.05
2018-01-10T07:20:11.225Z,1005.05
2018-01-10T07:21:19.896Z,1005.06
2018-01-10T07:22:28.840Z,1005.08
2018-01-10T07:23:37.776Z,1005.07
2018-01-10T07:24:46.975Z,1005.07
2018-01-10T07:25:55.904Z,1005.08
2018-01-10T07:27:04.855Z,1005.11
2018-01-10T07:28:14.370Z,1005.08
2018-01-10T07:29:23.830Z,1005.12
2018-01-10T07:30:32.773Z,1005.1
2018-01-10T07:31:41.711Z,1005.1
2018-01-10T07:32:50.402Z,1005.08
2018-01-10T07:33:59.619Z,1005.07
2018-01-10T07:35:08.866Z,1005.06
2018-01-10T07:36:17.806Z,1005.1
2018-01-10T07:37:27.291Z,1005.08
2018-01-10T07:38:36.790Z,1005.14
2018-01-10T07:39:46.012Z,1005.1
2018-01-10T07:40:54.766Z,1005.11
2018-01-10T07:42:03.716Z,1005.11
2018-01-10T07:43:12.655Z,1005.12
2018-01-10T07:44:21.365Z,1005.14
2018-01-10T07:45:30.585Z,1005.15
2018-01-10T07:46:39.534Z,1005.16
2018-01-10T07:47:48.240Z,1005.16
2018-01-10T07:48:57.719Z,1005.21
2018-01-10T07:50:07.364Z,1005.21
2018-01-10T07:51:16.836Z,1005.24
2018-01-10T07:52:25.537Z,1005.24
2018-01-10T07:53:35.276Z,1005.27
2018-01-10T07:54:44.473Z,1005.33
2018-01-10T07:55:53.683Z,1005.27
2018-01-10T07:57:02.901Z,1005.3
2018-01-10T07:58:12.108Z,1005.34
2018-01-10T07:59:21.302Z,1005.34
2018-01-10T08:00:30.236Z,1005.33
2018-01-10T08:01:39.472Z,1005.31
2018-01-10T08:02:48.952Z,1005.33
2018-01-10T08:03:57.970Z,1005.31
2018-01-10T08:05:06.918Z,1005.32
2018-01-10T08:06:16.116Z,1005.33
2018-01-10T08:07:25.318Z,1005.33
2018-01-10T08:08:34.537Z,1005.37
2018-01-10T08:09:43.747Z,1005.37
2018-01-10T08:10:53.217Z,1005.38
2018-01-10T08:12:02.198Z,1005.36
2018-01-10T08:13:11.140Z,1005.37
2018-01-10T08:14:20.343Z,1005.42
2018-01-10T08:15:29.309Z,1005.39
2018-01-10T08:16:38.545Z,1005.45
2018-01-10T08:17:47.505Z,1005.45
2018-01-10T08:18:56.723Z,1005.46
2018-01-10T08:20:05.675Z,1005.43
2018-01-10T08:21:14.876Z,1005.41
2018-01-10T08:22:24.088Z,1005.43
2018-01-10T08:23:33.295Z,1005.42
2018-01-10T08:24:42.784Z,1005.44
2018-01-10T08:25:52.005Z,1005.41
2018-01-10T08:27:01.215Z,1005.46
2018-01-10T08:28:10.243Z,1005.42
2018-01-10T08:29:19.988Z,1005.4
2018-01-10T08:30:29.194Z,1005.41
2018-01-10T08:31:38.134Z,1005.43
2018-01-10T08:32:47.634Z,1005.4
2018-01-10T08:33:57.385Z,1005.43
2018-01-10T08:35:06.901Z,1005.4
2018-01-10T08:36:16.125Z,1005.37
2018-01-10T08:37:25.347Z,1005.4
2018-01-10T08:38:34.302Z,1005.41
2018-01-10T08:39:43.782Z,1005.38
2018-01-10T08:40:52.992Z,1005.4
2018-01-10T08:42:02.238Z,1005.34
2018-01-10T08:43:11.451Z,1005.35
2018-01-10T08:44:20.140Z,1005.37
2018-01-10T08:45:29.093Z,1005.33
2018-01-10T08:46:38.314Z,1005.36
2018-01-10T08:47:48.035Z,1005.4
2018-01-10T08:48:57.512Z,1005.42
2018-01-10T08:50:06.993Z,1005.39
2018-01-10T08:51:16.197Z,1005.44
2018-01-10T08:52:25.411Z,1005.45
2018-01-10T08:53:34.888Z,1005.43
2018-01-10T08:54:44.367Z,1005.42
2018-01-10T08:55:53.093Z,1005.41
2018-01-10T08:57:01.795Z,1005.43
2018-01-10T08:58:11.256Z,1005.44
2018-01-10T08:59:20.462Z,1005.44
2018-01-10T09:00:29.661Z,1005.46
2018-01-10T09:01:38.622Z,1005.48
2018-01-10T09:02:48.083Z,1005.5
2018-01-10T09:03:56.762Z,1005.49
2018-01-10T09:05:05.708Z,1005.47
2018-01-10T09:06:15.460Z,1005.49
2018-01-10T09:07:24.433Z,1005.52
2018-01-10T09:08:33.441Z,1005.55
2018-01-10T09:09:42.913Z,1005.51
2018-01-10T09:10:51.886Z,1005.51
2018-01-10T09:12:00.588Z,1005.51
2018-01-10T09:13:09.786Z,1005.51
2018-01-10T09:14:18.997Z,1005.5
2018-01-10T09:15:28.211Z,1005.53
2018-01-10T09:16:37.435Z,1005.52
2018-01-10T09:17:46.372Z,1005.53
2018-01-10T09:18:55.322Z,1005.54
2018-01-10T09:20:04.018Z,1005.51
2018-01-10T09:21:13.752Z,1005.53
2018-01-10T09:22:22.976Z,1005.48
2018-01-10T09:23:32.179Z,1005.5
2018-01-10T09:24:41.656Z,1005.49
2018-01-10T09:25:50.634Z,1005.5
2018-01-10T09:26:59.596Z,1005.51
2018-01-10T09:28:08.550Z,1005.51
2018-01-10T09:29:17.504Z,1005.51
2018-01-10T09:30:26.747Z,1005.5
2018-01-10T09:31:35.704Z,1005.52
2018-01-10T09:32:44.394Z,1005.5
2018-01-10T09:33:53.871Z,1005.49
2018-01-10T09:35:02.550Z,1005.49
2018-01-10T09:36:11.495Z,1005.46
2018-01-10T09:37:20.206Z,1005.43
2018-01-10T09:38:29.429Z,1005.45
2018-01-10T09:39:38.628Z,1005.44
2018-01-10T09:40:47.836Z,1005.42
2018-01-10T09:41:57.062Z,1005.43
2018-01-10T09:43:06.272Z,1005.44
2018-01-10T09:44:15.495Z,1005.43
2018-01-10T09:45:24.445Z,1005.47
2018-01-10T09:46:33.652Z,1005.48
2018-01-10T09:47:42.596Z,1005.46
2018-01-10T09:48:51.292Z,1005.47
2018-01-10T09:50:00.231Z,1005.45
2018-01-10T09:51:09.696Z,1005.43
2018-01-10T09:52:18.902Z,1005.45
2018-01-10T09:53:28.109Z,1005.4
2018-01-10T09:54:37.600Z,1005.44
2018-01-10T09:55:46.823Z,1005.36
2018-01-10T09:56:55.509Z,1005.39
2018-01-10T09:58:04.475Z,1005.41
2018-01-10T09:59:13.424Z,1005.39
2018-01-10T10:00:22.906Z,1005.37
2018-01-10T10:01:31.848Z,1005.42
2018-01-10T10:02:40.817Z,1005.4
2018-01-10T10:03:50.283Z,1005.44
2018-01-10T10:04:59.504Z,1005.43
2018-01-10T10:06:08.726Z,1005.41
2018-01-10T10:07:17.942Z,1005.43
2018-01-10T10:08:27.176Z,1005.44
2018-01-10T10:09:36.382Z,1005.42
2018-01-10T10:10:45.572Z,1005.42
2018-01-10T10:11:54.533Z,1005.45
2018-01-10T10:13:04.021Z,1005.46
2018-01-10T10:14:12.997Z,1005.4
2018-01-10T10:15:22.202Z,1005.42
2018-01-10T10:16:31.147Z,1005.42
2018-01-10T10:17:40.613Z,1005.45
2018-01-10T10:18:49.821Z,1005.45
2018-01-10T10:19:58.535Z,1005.37
2018-01-10T10:21:07.506Z,1005.37
2018-01-10T10:22:16.445Z,1005.37
2018-01-10T10:23:25.657Z,1005.33
2018-01-10T10:24:34.607Z,1005.32
2018-01-10T10:25:43.831Z,1005.31
2018-01-10T10:26:53.303Z,1005.33
2018-01-10T10:28:02.795Z,1005.37
2018-01-10T10:29:11.748Z,1005.36
2018-01-10T10:30:20.445Z,1005.33
2018-01-10T10:31:29.400Z,1005.32
2018-01-10T10:32:38.353Z,1005.34
2018-01-10T10:33:47.818Z,1005.37
2018-01-10T10:34:57.050Z,1005.33
2018-01-10T10:36:06.008Z,1005.34
2018-01-10T10:37:14.948Z,1005.34
2018-01-10T10:38:24.154Z,1005.32
2018-01-10T10:39:33.111Z,1005.3
2018-01-10T10:40:42.571Z,1005.26
2018-01-10T10:41:52.040Z,1005.28
2018-01-10T10:43:00.992Z,1005.3
2018-01-10T10:44:09.933Z,1005.27
2018-01-10T10:45:19.412Z,1005.24
2018-01-10T10:46:28.886Z,1005.18
2018-01-10T10:47:38.105Z,1005.18
2018-01-10T10:48:47.325Z,1005.13
2018-01-10T10:49:56.797Z,1005.12
2018-01-10T10:51:06.520Z,1005.07
2018-01-10T10:52:15.748Z,1005.11
2018-01-10T10:53:24.952Z,1005.1
2018-01-10T10:54:34.152Z,1005.11
2018-01-10T10:55:43.631Z,1005.07
2018-01-10T10:56:52.577Z,1005.07
2018-01-10T10:58:01.520Z,1005.03
2018-01-10T10:59:10.725Z,1005.06
2018-01-10T11:00:19.665Z,1005.1
2018-01-10T11:01:29.139Z,1005.05
2018-01-10T11:02:37.829Z,1005.05
2018-01-10T11:03:47.031Z,1005
2018-01-10T11:04:56.234Z,1005
2018-01-10T11:06:05.186Z,1004.98
2018-01-10T11:07:14.674Z,1004.94
2018-01-10T11:08:23.891Z,1004.95
2018-01-10T11:09:33.097Z,1004.95
2018-01-10T11:10:41.776Z,1004.89
2018-01-10T11:11:50.506Z,1004.87
2018-01-10T11:12:59.460Z,1004.86
2018-01-10T11:14:08.137Z,1004.88
2018-01-10T11:15:17.092Z,1004.92
2018-01-10T11:16:26.571Z,1004.86
2018-01-10T11:17:35.783Z,1004.87
2018-01-10T11:18:44.729Z,1004.84
2018-01-10T11:19:53.692Z,1004.84
2018-01-10T11:21:02.631Z,1004.81
2018-01-10T11:22:11.317Z,1004.81
2018-01-10T11:23:20.792Z,1004.78
2018-01-10T11:24:29.479Z,1004.74
2018-01-10T11:25:38.428Z,1004.78
2018-01-10T11:26:47.371Z,1004.74
2018-01-10T11:27:56.328Z,1004.82
2018-01-10T11:29:05.820Z,1004.74
2018-01-10T11:30:15.027Z,1004.75
2018-01-10T11:31:24.510Z,1004.68
2018-01-10T11:32:33.724Z,1004.71
2018-01-10T11:33:42.665Z,1004.72
2018-01-10T11:34:51.611Z,1004.73
2018-01-10T11:36:00.889Z,1004.68
2018-01-10T11:37:09.830Z,1004.67
2018-01-10T11:38:19.037Z,1004.69
2018-01-10T11:39:27.976Z,1004.66
2018-01-10T11:40:37.184Z,1004.71
2018-01-10T11:41:46.203Z,1004.67
2018-01-10T11:42:54.886Z,1004.69
2018-01-10T11:44:04.095Z,1004.62
2018-01-10T11:45:13.039Z,1004.66
2018-01-10T11:46:22.233Z,1004.66
2018-01-10T11:47:31.978Z,1004.63
2018-01-10T11:48:41.707Z,1004.6
2018-01-10T11:49:50.660Z,1004.59
2018-01-10T11:50:59.917Z,1004.52
2018-01-10T11:52:09.092Z,1004.57
2018-01-10T11:53:18.038Z,1004.51
2018-01-10T11:54:26.977Z,1004.52
2018-01-10T11:55:36.185Z,1004.48
2018-01-10T11:56:45.931Z,1004.46
2018-01-10T11:57:55.132Z,1004.46
2018-01-10T11:59:04.329Z,1004.47
2018-01-10T12:00:13.269Z,1004.42
2018-01-10T12:01:22.463Z,1004.38
2018-01-10T12:02:31.420Z,1004.41
2018-01-10T12:03:40.360Z,1004.34
2018-01-10T12:04:49.569Z,1004.31
2018-01-10T12:05:58.769Z,1004.34
2018-01-10T12:07:07.994Z,1004.37
2018-01-10T12:08:16.972Z,1004.36
2018-01-10T12:09:26.183Z,1004.37
2018-01-10T12:10:35.662Z,1004.36
2018-01-10T12:11:45.127Z,1004.39
2018-01-10T12:12:54.337Z,1004.39
2018-01-10T12:14:03.813Z,1004.41
2018-01-10T12:15:12.759Z,1004.35
2018-01-10T12:16:22.220Z,1004.37
2018-01-10T12:17:31.425Z,1004.35
2018-01-10T12:18:40.383Z,1004.33
2018-01-10T12:19:49.588Z,1004.25
2018-01-10T12:20:59.331Z,1004.26
2018-01-10T12:22:08.531Z,1004.23
2018-01-10T12:23:18.004Z,1004.26
2018-01-10T12:24:27.217Z,1004.23
2018-01-10T12:25:36.695Z,1004.25
2018-01-10T12:26:45.906Z,1004.26
2018-01-10T12:27:54.855Z,1004.27
2018-01-10T12:29:04.059Z,1004.32
2018-01-10T12:30:13.015Z,1004.28
2018-01-10T12:31:22.535Z,1004.24
2018-01-10T12:32:32.021Z,1004.27
2018-01-10T12:33:41.540Z,1004.24
2018-01-10T12:34:50.499Z,1004.22
2018-01-10T12:36:00.014Z,1004.22
2018-01-10T12:37:08.985Z,1004.22
2018-01-10T12:38:17.933Z,1004.27
2018-01-10T12:39:27.147Z,1004.25
2018-01-10T12:40:36.088Z,1004.26
2018-01-10T12:41:45.302Z,1004.21
2018-01-10T12:42:54.512Z,1004.26
2018-01-10T12:44:03.457Z,1004.21
2018-01-10T12:45:12.679Z,1004.21
2018-01-10T12:46:22.152Z,1004.23
2018-01-10T12:47:31.088Z,1004.18
2018-01-10T12:48:39.777Z,1004.19
2018-01-10T12:49:48.990Z,1004.21
2018-01-10T12:50:57.937Z,1004.19
2018-01-10T12:52:06.618Z,1004.18
2018-01-10T12:53:15.845Z,1004.21
2018-01-10T12:54:25.056Z,1004.22
2018-01-10T12:55:34.016Z,1004.14
2018-01-10T12:56:42.963Z,1004.19
2018-01-10T12:57:51.642Z,1004.21
2018-01-10T12:59:00.605Z,1004.19
2018-01-10T13:00:09.552Z,1004.21
2018-01-10T13:01:18.513Z,1004.2
2018-01-10T13:02:27.715Z,1004.22
2018-01-10T13:03:37.170Z,1004.2
2018-01-10T13:04:46.445Z,1004.23
2018-01-10T13:05:55.674Z,1004.2
2018-01-10T13:07:04.372Z,1004.21
2018-01-10T13:08:13.043Z,1004.18
2018-01-10T13:09:21.721Z,1004.22
2018-01-10T13:10:30.936Z,1004.21
2018-01-10T13:11:40.138Z,1004.19
2018-01-10T13:12:49.352Z,1004.17
2018-01-10T13:13:58.809Z,1004.19
2018-01-10T13:15:08.017Z,1004.21
2018-01-10T13:16:16.983Z,1004.18
2018-01-10T13:17:26.234Z,1004.21
2018-01-10T13:18:35.478Z,1004.2
2018-01-10T13:19:44.162Z,1004.17
2018-01-10T13:20:53.383Z,1004.15
2018-01-10T13:22:02.092Z,1004.2
2018-01-10T13:23:11.297Z,1004.16
2018-01-10T13:24:20.564Z,1004.16
2018-01-10T13:25:29.590Z,1004.14
2018-01-10T13:26:38.545Z,1004.15
2018-01-10T13:27:48.341Z,1004.13
2018-01-10T13:28:57.298Z,1004.11
2018-01-10T13:30:06.278Z,1004.11
2018-01-10T13:31:15.516Z,1004.11
2018-01-10T13:32:24.820Z,1004.1
2018-01-10T13:33:33.857Z,1004.09
2018-01-10T13:34:43.076Z,1004.05
2018-01-10T13:35:52.042Z,1004.02
2018-01-10T13:37:01.269Z,1004.04
2018-01-10T13:38:10.270Z,1004
2018-01-10T13:39:19.714Z,1004.01
2018-01-10T13:40:28.957Z,1004
2018-01-10T13:41:37.915Z,1004.03
2018-01-10T13:42:46.906Z,1003.97
2018-01-10T13:43:55.592Z,1003.99
2018-01-10T13:45:04.818Z,1004.05
2018-01-10T13:46:14.285Z,1004.04
2018-01-10T13:47:23.490Z,1004.06
2018-01-10T13:48:32.433Z,1004.05
2018-01-10T13:49:41.639Z,1004.03
2018-01-10T13:50:50.315Z,1004.06
2018-01-10T13:51:59.512Z,1004.04
2018-01-10T13:53:08.985Z,1004.01
2018-01-10T13:54:18.210Z,1004.05
2018-01-10T13:55:27.688Z,1004.06
2018-01-10T13:56:36.630Z,1004.06
2018-01-10T13:57:45.318Z,1004.06
2018-01-10T13:58:54.526Z,1004.07
2018-01-10T14:00:04.274Z,1004.12